Royal Accord — 3EUA9 — position and weather

sailwx.info

Track history (hours):
 
Tides and Currents Weather Stations Pressure Air Temp Water Temp Dewpoint Dewpoint Depression Visibility Wind Speed Wind Dir Waves Ship Positions

Royal Accord

Last reported at 2018-Sep-05 22:42 UTC. Time now 2018-Sep-19 04:49 UTC.
Position S 34°47' E 018°26'.
Warning: this ship's position is 13 days out of date.

Length 290 m; draft 14.9 m.

Type: Cargo ship. MMSI: 370064000.

Date/timePositionNaut miles runAvg speedWind from/ knotsBaromVisibWave heightAir tempDewpointWater temp
2018-Sep-05 22:42S 34°47' E 018°26'311.4
2018-Sep-05 22:29S 34°47' E 018°23'1011.4
2018-Sep-05 21:37S 34°43' E 018°12'411.5
2018-Sep-05 21:15S 34°42' E 018°07'311.4
2018-Sep-05 20:58S 34°41' E 018°03'1410.9
2018-Sep-05 19:44S 34°32' E 017°52'511.1
2018-Sep-05 19:20S 34°28' E 017°48'311.2
2018-Sep-05 19:02S 34°25' E 017°46'111.2
2018-Sep-05 18:57S 34°25' E 017°45'511.2
2018-Sep-05 18:30S 34°21' E 017°41'511.2
2018-Sep-05 18:03S 34°17' E 017°37'111.1
2018-Sep-05 18:00S 34°17' E 017°37'611.2
2018-Sep-05 17:30S 34°12' E 017°33'  
Track history (hours):
 
Tides and Currents Weather Stations Pressure Air Temp Water Temp Dewpoint Dewpoint Depression Visibility Wind Speed Wind Dir Waves Ship Positions

Royal Accord

Last reported at 2018-Sep-05 22:42 UTC. Time now 2018-Sep-19 04:49 UTC.
Position S 34°47' E 018°26'.
Warning: this ship's position is 13 days out of date.

Length 290 m; draft 14.9 m.

Type: Cargo ship. MMSI: 370064000.

Date/timePositionNaut miles runAvg speedWind from/ knotsBaromVisibWave heightAir tempDewpointWater temp
2018-Sep-05 22:42S 34°47' E 018°26'311.4
2018-Sep-05 22:29S 34°47' E 018°23'1011.4
2018-Sep-05 21:37S 34°43' E 018°12'411.5
2018-Sep-05 21:15S 34°42' E 018°07'311.4
2018-Sep-05 20:58S 34°41' E 018°03'1410.9
2018-Sep-05 19:44S 34°32' E 017°52'511.1
2018-Sep-05 19:20S 34°28' E 017°48'311.2
2018-Sep-05 19:02S 34°25' E 017°46'111.2
2018-Sep-05 18:57S 34°25' E 017°45'511.2
2018-Sep-05 18:30S 34°21' E 017°41'511.2
2018-Sep-05 18:03S 34°17' E 017°37'111.1
2018-Sep-05 18:00S 34°17' E 017°37'611.2
2018-Sep-05 17:30S 34°12' E 017°33'  

Dump ship's entire track history